createdAt,value
2022-10-22T00:00:00.467Z,66.05
2022-10-22T00:02:28.105Z,65.93
2022-10-22T00:04:57.192Z,66.11
2022-10-22T00:07:24.345Z,65.62
2022-10-22T00:09:51.448Z,65.52
2022-10-22T00:12:18.774Z,65.65
2022-10-22T00:14:46.265Z,65.19
2022-10-22T00:17:13.342Z,65.49
2022-10-22T00:19:40.813Z,65.84
2022-10-22T00:22:10.161Z,66.01
2022-10-22T00:24:38.181Z,65.92
2022-10-22T00:27:05.498Z,65.96
2022-10-22T00:29:32.753Z,66.00
2022-10-22T00:31:59.670Z,66.05
2022-10-22T00:34:26.591Z,66.42
2022-10-22T00:36:53.632Z,66.03
2022-10-22T00:39:22.910Z,66.66
2022-10-22T00:41:51.489Z,66.71
2022-10-22T00:44:55.814Z,66.79
2022-10-22T00:47:24.061Z,66.05
2022-10-22T00:49:53.990Z,66.35
2022-10-22T00:52:21.995Z,65.86
2022-10-22T00:54:50.054Z,65.85
2022-10-22T00:57:19.891Z,65.83
2022-10-22T00:59:47.848Z,64.91
2022-10-22T01:02:15.380Z,65.08
2022-10-22T01:04:42.675Z,64.92
2022-10-22T01:07:17.624Z,64.59
2022-10-22T01:10:01.976Z,64.73
2022-10-22T01:12:42.778Z,65.02
2022-10-22T01:16:03.316Z,64.05
2022-10-22T01:18:59.830Z,64.28
2022-10-22T01:21:51.895Z,64.43
2022-10-22T01:24:26.143Z,64.07
2022-10-22T01:27:14.175Z,63.86
2022-10-22T01:29:51.600Z,63.08
2022-10-22T01:32:23.383Z,62.70
2022-10-22T01:34:55.826Z,62.84
2022-10-22T01:37:26.992Z,62.00
2022-10-22T01:39:56.104Z,62.49
2022-10-22T01:42:24.002Z,62.05
2022-10-22T01:44:50.844Z,62.07
2022-10-22T01:47:42.397Z,61.88
2022-10-22T01:50:22.502Z,61.83
2022-10-22T01:53:23.350Z,61.83
2022-10-22T01:56:27.452Z,61.71
2022-10-22T01:59:26.361Z,61.89
2022-10-22T02:02:28.129Z,61.73
2022-10-22T02:05:32.691Z,62.58
2022-10-22T02:08:12.535Z,65.32
2022-10-22T02:10:43.701Z,67.32
2022-10-22T02:13:26.755Z,67.75
2022-10-22T02:15:55.950Z,68.45
2022-10-22T02:18:27.582Z,67.99
2022-10-22T02:20:55.338Z,67.75
2022-10-22T02:23:22.579Z,67.48
2022-10-22T02:25:56.383Z,67.40
2022-10-22T02:28:49.387Z,66.58
2022-10-22T02:31:21.878Z,66.03
2022-10-22T02:33:54.955Z,65.73
2022-10-22T02:36:23.752Z,65.61
2022-10-22T02:38:52.359Z,65.31
2022-10-22T02:41:20.483Z,65.06
2022-10-22T02:43:56.962Z,65.11
2022-10-22T02:46:25.896Z,65.04
2022-10-22T02:48:52.708Z,64.11
2022-10-22T02:51:19.516Z,63.97
2022-10-22T02:53:46.413Z,63.32
2022-10-22T02:56:14.354Z,63.31
2022-10-22T02:58:41.376Z,62.95
2022-10-22T03:01:10.281Z,62.94
2022-10-22T03:03:39.245Z,62.95
2022-10-22T03:06:06.316Z,63.19
2022-10-22T03:08:33.398Z,62.91
2022-10-22T03:11:00.287Z,62.85
2022-10-22T03:13:27.111Z,63.20
2022-10-22T03:15:53.994Z,63.37
2022-10-22T03:18:20.866Z,63.43
2022-10-22T03:20:47.775Z,63.33
2022-10-22T03:23:20.036Z,62.87
2022-10-22T03:25:50.308Z,62.69
2022-10-22T03:28:18.873Z,62.38
2022-10-22T03:30:45.676Z,62.39
2022-10-22T03:33:12.814Z,62.09
2022-10-22T03:35:46.281Z,61.89
2022-10-22T03:38:14.598Z,61.39
2022-10-22T03:40:44.487Z,61.66
2022-10-22T03:43:11.608Z,61.84
2022-10-22T03:48:10.166Z,61.72
2022-10-22T03:50:37.036Z,61.94
2022-10-22T03:53:04.533Z,62.35
2022-10-22T03:55:34.061Z,62.20
2022-10-22T03:58:00.997Z,63.22
2022-10-22T04:00:27.815Z,62.86
2022-10-22T04:02:54.646Z,63.37
2022-10-22T04:05:21.598Z,63.63
2022-10-22T04:07:48.386Z,63.49
2022-10-22T04:10:15.307Z,64.00
2022-10-22T04:12:42.168Z,64.09
2022-10-22T04:15:09.515Z,64.39
2022-10-22T04:17:37.790Z,63.87
2022-10-22T04:20:06.076Z,64.02
2022-10-22T04:22:37.004Z,64.09
2022-10-22T04:25:05.296Z,63.92
2022-10-22T04:27:33.372Z,63.87
2022-10-22T04:30:00.152Z,64.32
2022-10-22T04:32:28.107Z,64.45
2022-10-22T04:34:54.922Z,64.53
2022-10-22T04:37:22.154Z,64.14
2022-10-22T04:39:49.247Z,63.87
2022-10-22T04:42:16.054Z,63.97
2022-10-22T04:44:43.128Z,63.98
2022-10-22T04:47:09.937Z,64.32
2022-10-22T04:49:36.787Z,64.75
2022-10-22T04:52:03.816Z,64.35
2022-10-22T04:54:33.047Z,64.48
2022-10-22T04:57:18.592Z,64.97
2022-10-22T04:59:45.564Z,64.33
2022-10-22T05:02:12.445Z,64.53
2022-10-22T05:04:39.261Z,64.31
2022-10-22T05:07:06.214Z,64.32
2022-10-22T05:09:33.035Z,64.08
2022-10-22T05:11:59.905Z,64.03
2022-10-22T05:14:26.864Z,63.58
2022-10-22T05:16:54.522Z,63.24
2022-10-22T05:19:30.228Z,63.33
2022-10-22T05:21:59.747Z,63.17
2022-10-22T05:24:27.559Z,62.78
2022-10-22T05:27:14.269Z,62.74
2022-10-22T05:29:41.071Z,62.88
2022-10-22T05:32:08.022Z,62.38
2022-10-22T05:34:36.351Z,62.19
2022-10-22T05:37:03.266Z,62.46
2022-10-22T05:39:30.075Z,62.26
2022-10-22T05:41:57.005Z,62.17
2022-10-22T05:44:23.783Z,61.55
2022-10-22T05:46:50.775Z,61.41
2022-10-22T05:49:17.709Z,59.42
2022-10-22T05:51:44.506Z,57.82
2022-10-22T05:54:22.372Z,57.20
2022-10-22T05:56:49.346Z,57.80
2022-10-22T05:59:16.171Z,56.00
2022-10-22T06:01:43.056Z,54.71
2022-10-22T06:04:12.727Z,54.05
2022-10-22T06:06:42.471Z,51.90
2022-10-22T06:09:20.446Z,50.96
2022-10-22T06:11:47.571Z,51.56
2022-10-22T06:14:15.002Z,51.89
2022-10-22T06:16:41.958Z,50.22
2022-10-22T06:19:11.632Z,49.65
2022-10-22T06:21:38.664Z,48.69
2022-10-22T06:24:06.236Z,48.63
2022-10-22T06:26:33.092Z,48.08
2022-10-22T06:29:00.343Z,45.20
2022-10-22T06:31:28.043Z,42.91
2022-10-22T06:33:56.480Z,40.79
2022-10-22T06:36:24.646Z,38.90
2022-10-22T06:38:53.420Z,36.70
2022-10-22T06:41:23.039Z,36.97
2022-10-22T06:43:54.196Z,36.47
2022-10-22T06:46:22.059Z,35.95
2022-10-22T06:49:07.577Z,36.60
2022-10-22T06:51:34.469Z,37.77
2022-10-22T06:54:01.342Z,35.46
2022-10-22T06:56:29.438Z,34.57
2022-10-22T06:58:58.357Z,32.63
2022-10-22T07:01:43.745Z,32.92
2022-10-22T07:04:11.292Z,32.43
2022-10-22T07:06:38.150Z,31.97
2022-10-22T07:09:05.110Z,32.00
2022-10-22T07:11:39.694Z,34.30
2022-10-22T07:14:06.576Z,35.06
2022-10-22T07:16:33.588Z,34.67
2022-10-22T07:19:02.277Z,33.34
2022-10-22T07:21:30.515Z,34.06
2022-10-22T07:23:57.786Z,33.61
2022-10-22T07:26:25.680Z,32.53
2022-10-22T07:28:52.576Z,32.61
2022-10-22T07:31:19.899Z,32.95
2022-10-22T07:33:46.766Z,31.95
2022-10-22T07:36:18.044Z,32.06
2022-10-22T07:38:46.928Z,31.74
2022-10-22T07:41:15.311Z,31.58
2022-10-22T07:43:42.526Z,31.95
2022-10-22T07:46:09.647Z,31.97
2022-10-22T07:48:37.286Z,31.84
2022-10-22T07:51:05.759Z,32.15
2022-10-22T07:53:33.339Z,31.70
2022-10-22T07:56:00.132Z,31.87
2022-10-22T07:58:26.946Z,32.53
2022-10-22T08:00:58.770Z,31.14
2022-10-22T08:03:25.666Z,32.08
2022-10-22T08:05:52.975Z,31.49
2022-10-22T08:08:20.066Z,31.68
2022-10-22T08:10:47.855Z,30.78
2022-10-22T08:13:15.560Z,31.01
2022-10-22T08:18:15.378Z,30.90
2022-10-22T08:20:42.756Z,31.45
2022-10-22T08:23:09.548Z,30.17
2022-10-22T08:25:36.486Z,30.93
2022-10-22T08:28:03.523Z,30.82
2022-10-22T08:30:30.433Z,31.05
2022-10-22T08:32:57.432Z,31.21
2022-10-22T08:35:24.599Z,30.45
2022-10-22T08:37:51.577Z,30.53
2022-10-22T08:40:39.014Z,29.72
2022-10-22T08:43:18.588Z,29.25
2022-10-22T08:46:03.886Z,29.60
2022-10-22T08:48:44.866Z,29.32
2022-10-22T08:51:21.569Z,29.42
2022-10-22T08:54:14.841Z,29.98
2022-10-22T08:56:45.685Z,28.94
2022-10-22T08:59:20.622Z,28.93
2022-10-22T09:02:10.530Z,29.11
2022-10-22T09:04:49.331Z,29.68
2022-10-22T09:07:16.368Z,29.16
2022-10-22T09:09:49.341Z,28.78
2022-10-22T09:12:20.228Z,29.46
2022-10-22T09:14:47.609Z,29.15
2022-10-22T09:17:35.533Z,30.45
2022-10-22T09:20:26.992Z,29.42
2022-10-22T09:23:05.562Z,29.27
2022-10-22T09:25:36.912Z,30.31
2022-10-22T09:28:05.907Z,30.19
2022-10-22T09:30:38.156Z,29.81
2022-10-22T09:33:14.670Z,30.09
2022-10-22T09:35:59.411Z,30.02
2022-10-22T09:38:32.101Z,29.57
2022-10-22T09:41:00.730Z,30.91
2022-10-22T09:43:27.718Z,32.70
2022-10-22T09:46:02.547Z,32.29
2022-10-22T09:48:36.732Z,30.88
2022-10-22T09:51:16.551Z,31.00
2022-10-22T09:53:46.475Z,35.72
2022-10-22T09:56:41.017Z,32.81
2022-10-22T09:59:18.495Z,30.83
2022-10-22T10:01:45.730Z,32.83
2022-10-22T10:04:15.391Z,30.12
2022-10-22T10:06:44.782Z,30.61
2022-10-22T10:09:20.786Z,35.72
2022-10-22T10:12:05.911Z,33.91
2022-10-22T10:14:47.791Z,32.07
2022-10-22T10:17:39.930Z,33.37
2022-10-22T10:20:31.160Z,32.49
2022-10-22T10:23:00.919Z,32.41
2022-10-22T10:25:42.880Z,32.37
2022-10-22T10:28:23.722Z,31.22
2022-10-22T10:31:27.791Z,32.66
2022-10-22T10:34:37.498Z,32.68
2022-10-22T10:37:26.380Z,35.48
2022-10-22T10:40:19.822Z,33.83
2022-10-22T10:42:58.104Z,33.46
2022-10-22T10:45:37.211Z,33.62
2022-10-22T10:48:09.943Z,35.25
2022-10-22T10:50:55.092Z,33.76
2022-10-22T10:53:30.771Z,34.91
2022-10-22T10:55:57.608Z,36.24
2022-10-22T10:58:53.892Z,37.90
2022-10-22T11:01:47.342Z,38.97
2022-10-22T11:04:42.212Z,37.37
2022-10-22T11:07:30.279Z,40.01
2022-10-22T11:10:13.822Z,37.59
2022-10-22T11:12:46.082Z,34.75
2022-10-22T11:15:28.462Z,35.31
2022-10-22T11:17:59.722Z,33.59
2022-10-22T11:20:39.910Z,33.70
2022-10-22T11:23:20.655Z,33.42
2022-10-22T11:25:49.902Z,32.76
2022-10-22T11:28:22.642Z,31.82
2022-10-22T11:30:57.182Z,34.13
2022-10-22T11:33:29.489Z,34.26
2022-10-22T11:35:59.623Z,33.32
2022-10-22T11:38:27.160Z,34.65
2022-10-22T11:41:01.552Z,35.93
2022-10-22T11:43:51.979Z,36.02
2022-10-22T11:46:18.772Z,35.58
2022-10-22T11:49:02.045Z,35.12
2022-10-22T11:51:38.213Z,37.10
2022-10-22T11:54:29.737Z,38.18
2022-10-22T11:57:27.915Z,38.12
2022-10-22T11:59:59.991Z,37.85
2022-10-22T12:02:32.647Z,37.38
2022-10-22T12:05:24.227Z,37.40
2022-10-22T12:07:58.594Z,37.81
2022-10-22T12:10:29.581Z,37.90
2022-10-22T12:13:00.723Z,38.12
2022-10-22T12:15:28.939Z,38.92
2022-10-22T12:18:05.942Z,38.77
2022-10-22T12:20:32.873Z,39.63
2022-10-22T12:23:00.291Z,39.94
2022-10-22T12:25:35.486Z,40.10
2022-10-22T12:28:02.973Z,40.55
2022-10-22T12:30:37.347Z,40.94
2022-10-22T12:33:08.160Z,41.08
2022-10-22T12:35:43.843Z,41.86
2022-10-22T12:38:20.424Z,41.62
2022-10-22T12:40:48.724Z,41.72
2022-10-22T12:43:19.659Z,41.81
2022-10-22T12:45:49.599Z,42.34
2022-10-22T12:48:27.451Z,42.53
2022-10-22T12:50:57.063Z,42.34
2022-10-22T12:53:30.803Z,42.59
2022-10-22T12:56:02.612Z,42.52
2022-10-22T12:58:39.837Z,42.39
2022-10-22T13:01:07.303Z,42.70
2022-10-22T13:03:38.777Z,42.76
2022-10-22T13:06:34.392Z,42.69
2022-10-22T13:09:27.466Z,42.57
2022-10-22T13:12:05.011Z,42.86
2022-10-22T13:14:34.910Z,42.88
2022-10-22T13:17:15.077Z,42.83
2022-10-22T13:19:46.313Z,42.79
2022-10-22T13:22:36.885Z,43.12
2022-10-22T13:25:16.150Z,43.16
2022-10-22T13:27:50.078Z,43.38
2022-10-22T13:30:27.820Z,43.47
2022-10-22T13:33:03.405Z,43.27
2022-10-22T13:35:36.206Z,43.48
2022-10-22T13:38:06.327Z,43.35
2022-10-22T13:40:33.203Z,43.38
2022-10-22T13:42:59.983Z,43.21
2022-10-22T13:45:26.877Z,43.83
2022-10-22T13:47:55.199Z,43.56
2022-10-22T13:50:22.149Z,43.56
2022-10-22T13:52:57.138Z,44.00
2022-10-22T13:55:30.289Z,44.13
2022-10-22T13:58:03.570Z,44.11
2022-10-22T14:00:31.294Z,44.02
2022-10-22T14:02:59.661Z,44.42
2022-10-22T14:05:26.494Z,44.40
2022-10-22T14:07:53.812Z,44.53
2022-10-22T14:10:24.903Z,44.49
2022-10-22T14:12:53.810Z,44.65
2022-10-22T14:15:26.314Z,44.48
2022-10-22T14:17:57.343Z,44.20
2022-10-22T14:20:27.976Z,43.85
2022-10-22T14:22:55.323Z,44.02
2022-10-22T14:25:25.603Z,43.71
2022-10-22T14:27:52.892Z,43.93
2022-10-22T14:30:22.711Z,43.56
2022-10-22T14:32:50.333Z,43.22
2022-10-22T14:35:21.618Z,43.55
2022-10-22T14:37:48.514Z,43.03
2022-10-22T14:40:20.584Z,43.27
2022-10-22T14:42:49.023Z,43.43
2022-10-22T14:45:23.147Z,43.73
2022-10-22T14:47:51.163Z,43.51
2022-10-22T14:50:19.474Z,43.72
2022-10-22T14:52:46.382Z,43.17
2022-10-22T14:55:16.003Z,44.34
2022-10-22T14:57:43.221Z,44.21
2022-10-22T15:00:13.696Z,44.85
2022-10-22T15:02:40.996Z,44.65
2022-10-22T15:05:08.772Z,45.15
2022-10-22T15:07:35.842Z,45.49
2022-10-22T15:10:04.544Z,46.08
2022-10-22T15:12:31.539Z,46.64
2022-10-22T15:14:58.439Z,48.55
2022-10-22T15:17:25.540Z,48.27
2022-10-22T15:19:53.303Z,47.93
2022-10-22T15:22:20.263Z,48.09
2022-10-22T15:24:48.671Z,48.32
2022-10-22T15:27:15.937Z,48.81
2022-10-22T15:29:43.244Z,49.37
2022-10-22T15:32:10.686Z,50.00
2022-10-22T15:34:38.866Z,50.62
2022-10-22T15:37:08.534Z,50.92
2022-10-22T15:39:36.263Z,51.74
2022-10-22T15:42:03.122Z,51.99
2022-10-22T15:44:31.727Z,52.84
2022-10-22T15:46:59.168Z,53.01
2022-10-22T15:49:27.932Z,52.84
2022-10-22T15:51:55.444Z,52.95
2022-10-22T15:54:25.683Z,54.13
2022-10-22T15:56:52.619Z,53.90
2022-10-22T15:59:19.673Z,54.71
2022-10-22T16:01:47.132Z,55.75
2022-10-22T16:04:14.874Z,55.90
2022-10-22T16:06:45.225Z,56.64
2022-10-22T16:09:15.382Z,56.73
2022-10-22T16:11:43.064Z,57.15
2022-10-22T16:14:15.257Z,57.47
2022-10-22T16:16:47.651Z,58.04
2022-10-22T16:19:16.694Z,58.88
2022-10-22T16:21:44.888Z,58.76
2022-10-22T16:24:12.693Z,58.88
2022-10-22T16:26:39.562Z,59.05
2022-10-22T16:29:25.181Z,59.84
2022-10-22T16:31:52.436Z,59.61
2022-10-22T16:34:19.237Z,60.31
2022-10-22T16:36:46.060Z,60.52
2022-10-22T16:39:13.042Z,60.43
2022-10-22T16:41:40.031Z,60.49
2022-10-22T16:44:08.837Z,60.62
2022-10-22T16:46:38.763Z,60.75
2022-10-22T16:49:06.326Z,61.19
2022-10-22T16:51:33.772Z,61.73
2022-10-22T16:54:00.644Z,61.57
2022-10-22T16:56:27.552Z,61.94
2022-10-22T16:58:57.083Z,62.11
2022-10-22T17:01:26.660Z,62.99
2022-10-22T17:03:56.863Z,62.91
2022-10-22T17:06:24.885Z,62.96
2022-10-22T17:08:51.849Z,63.08
2022-10-22T17:11:40.160Z,64.10
2022-10-22T17:14:09.672Z,65.26
2022-10-22T17:16:36.512Z,65.27
2022-10-22T17:19:04.422Z,65.21
2022-10-22T17:21:31.382Z,65.51
2022-10-22T17:23:58.512Z,65.68
2022-10-22T17:26:27.025Z,66.15
2022-10-22T17:28:54.863Z,66.25
2022-10-22T17:31:21.636Z,66.55
2022-10-22T17:33:50.326Z,65.86
2022-10-22T17:36:18.966Z,66.43
2022-10-22T17:38:49.613Z,66.45
2022-10-22T17:41:19.471Z,66.28
2022-10-22T17:43:47.579Z,67.01
2022-10-22T17:46:23.650Z,67.51
2022-10-22T17:49:04.910Z,68.12
2022-10-22T17:51:32.391Z,67.86
2022-10-22T17:53:59.392Z,68.64
2022-10-22T17:56:30.071Z,68.44
2022-10-22T17:58:57.321Z,69.22
2022-10-22T18:01:29.392Z,69.72
2022-10-22T18:04:00.505Z,69.76
2022-10-22T18:06:28.143Z,68.63
2022-10-22T18:08:54.970Z,69.44
2022-10-22T18:11:24.542Z,69.30
2022-10-22T18:13:53.367Z,70.02
2022-10-22T18:16:20.779Z,70.79
2022-10-22T18:18:55.810Z,70.00
2022-10-22T18:21:24.251Z,70.78
2022-10-22T18:23:51.278Z,70.57
2022-10-22T18:26:21.368Z,71.26
2022-10-22T18:28:51.151Z,71.53
2022-10-22T18:31:20.591Z,70.60
2022-10-22T18:33:48.389Z,71.22
2022-10-22T18:36:19.269Z,72.75
2022-10-22T18:38:50.983Z,71.88
2022-10-22T18:41:17.842Z,71.46
2022-10-22T18:43:44.759Z,72.00
2022-10-22T18:46:11.610Z,71.82
2022-10-22T18:48:38.390Z,72.35
2022-10-22T18:51:07.791Z,72.80
2022-10-22T18:53:36.383Z,72.67
2022-10-22T18:56:08.384Z,73.41
2022-10-22T18:58:43.236Z,74.36
2022-10-22T19:01:12.799Z,74.23
2022-10-22T19:03:41.339Z,74.24
2022-10-22T19:06:08.699Z,75.07
2022-10-22T19:08:37.059Z,74.77
2022-10-22T19:11:10.780Z,75.01
2022-10-22T19:13:37.927Z,75.08
2022-10-22T19:16:06.711Z,75.14
2022-10-22T19:18:34.268Z,75.00
2022-10-22T19:21:02.191Z,75.47
2022-10-22T19:23:30.693Z,75.41
2022-10-22T19:26:05.935Z,74.63
2022-10-22T19:28:33.512Z,75.36
2022-10-22T19:31:00.387Z,75.74
2022-10-22T19:33:28.091Z,75.25
2022-10-22T19:35:54.866Z,74.50
2022-10-22T19:38:21.750Z,73.67
2022-10-22T19:40:48.635Z,72.85
2022-10-22T19:43:18.881Z,72.10
2022-10-22T19:45:45.953Z,70.73
2022-10-22T19:48:12.776Z,69.37
2022-10-22T19:50:39.547Z,68.56
2022-10-22T19:53:06.327Z,67.86
2022-10-22T19:55:33.183Z,66.88
2022-10-22T19:58:00.015Z,66.17
2022-10-22T20:00:28.482Z,65.92
2022-10-22T20:02:55.331Z,65.63
2022-10-22T20:07:49.766Z,64.88
2022-10-22T20:10:16.743Z,64.77
2022-10-22T20:12:43.572Z,65.07
2022-10-22T20:15:10.482Z,64.88
2022-10-22T20:17:37.504Z,64.85
2022-10-22T20:20:04.705Z,64.82
2022-10-22T20:22:31.488Z,64.62
2022-10-22T20:24:58.366Z,64.54
2022-10-22T20:27:25.138Z,64.39
2022-10-22T20:29:51.933Z,64.49
2022-10-22T20:32:18.903Z,64.09
2022-10-22T20:34:46.060Z,63.77
2022-10-22T20:37:12.831Z,63.46
2022-10-22T20:39:39.746Z,63.14
2022-10-22T20:42:06.547Z,62.49
2022-10-22T20:44:33.372Z,61.74
2022-10-22T20:47:00.264Z,61.66
2022-10-22T20:49:27.150Z,61.05
2022-10-22T20:51:53.961Z,60.87
2022-10-22T20:54:20.886Z,60.17
2022-10-22T20:56:48.226Z,59.58
2022-10-22T20:59:15.637Z,59.18
2022-10-22T21:01:49.344Z,58.66
2022-10-22T21:04:17.302Z,58.30
2022-10-22T21:06:44.203Z,57.81
2022-10-22T21:09:13.150Z,57.85
2022-10-22T21:11:41.058Z,57.90
2022-10-22T21:14:10.101Z,58.58
2022-10-22T21:16:41.413Z,58.19
2022-10-22T21:19:08.282Z,58.43
2022-10-22T21:21:35.216Z,57.31
2022-10-22T21:24:02.084Z,54.24
2022-10-22T21:26:28.985Z,51.40
2022-10-22T21:28:56.177Z,51.75
2022-10-22T21:31:26.052Z,53.71
2022-10-22T21:33:53.883Z,54.95
2022-10-22T21:36:23.198Z,56.24
2022-10-22T21:38:54.058Z,57.42
2022-10-22T21:41:24.036Z,57.83
2022-10-22T21:43:51.888Z,58.12
2022-10-22T21:46:24.338Z,58.80
2022-10-22T21:48:59.381Z,59.37
2022-10-22T21:51:26.404Z,59.65
2022-10-22T21:53:53.518Z,59.94
2022-10-22T21:56:30.426Z,60.55
2022-10-22T21:58:57.202Z,60.65
2022-10-22T22:01:24.801Z,60.86
2022-10-22T22:03:52.895Z,60.92
2022-10-22T22:06:22.891Z,61.00
2022-10-22T22:08:51.823Z,61.60
2022-10-22T22:11:24.662Z,62.17
2022-10-22T22:13:53.224Z,62.53
2022-10-22T22:16:27.128Z,63.06
2022-10-22T22:18:57.246Z,62.93
2022-10-22T22:21:30.372Z,63.81
2022-10-22T22:23:58.102Z,64.38
2022-10-22T22:26:29.639Z,65.49
2022-10-22T22:29:00.520Z,65.64
2022-10-22T22:33:32.383Z,66.16
2022-10-22T22:35:59.866Z,65.71
2022-10-22T22:38:26.679Z,65.82
2022-10-22T22:40:53.579Z,66.20
2022-10-22T22:43:20.538Z,66.53
2022-10-22T22:45:47.392Z,66.49
2022-10-22T22:48:14.713Z,66.74
2022-10-22T22:50:41.495Z,66.94
2022-10-22T22:53:08.276Z,67.97
2022-10-22T22:55:35.242Z,68.55
2022-10-22T22:58:02.194Z,68.55
2022-10-22T23:00:29.085Z,68.56
2022-10-22T23:02:56.278Z,68.59
2022-10-22T23:05:23.252Z,68.58
2022-10-22T23:07:50.078Z,68.93
2022-10-22T23:10:17.178Z,68.78
2022-10-22T23:12:44.487Z,68.84
2022-10-22T23:15:11.708Z,69.03
2022-10-22T23:17:38.890Z,69.38
2022-10-22T23:20:06.702Z,69.29
2022-10-22T23:22:33.572Z,69.89
2022-10-22T23:25:00.449Z,69.35
2022-10-22T23:27:27.545Z,69.49
2022-10-22T23:29:54.372Z,69.74
2022-10-22T23:32:21.216Z,70.28
2022-10-22T23:34:48.188Z,70.34
2022-10-22T23:37:15.014Z,70.86
2022-10-22T23:39:41.903Z,70.58
2022-10-22T23:42:08.791Z,72.16
2022-10-22T23:44:39.581Z,72.11
2022-10-22T23:47:06.448Z,72.13
2022-10-22T23:49:33.303Z,72.60
2022-10-22T23:52:00.130Z,72.72
2022-10-22T23:54:27.040Z,72.61
2022-10-22T23:56:53.866Z,72.83
2022-10-22T23:59:21.373Z,72.61
